Time,TemperatureF,DewpointF,PressureIn,WindDirection,WindDirectionDegrees,WindSpeedMPH,WindSpeedGustMPH,Humidity,HourlyPrecipIn,Conditions,Clouds,dailyrainin,SolarRadiationWatts/m^2,SoftwareType,DateUTC
2013-07-22 14:37:00,83.0,69.0,-100.00,West,259,4.0,13.0,62,-99.99,,,-99.99,524.000000,,2013-07-22 19:37:00,
2013-07-22 14:47:00,83.0,69.0,-100.00,West,259,4.0,13.0,62,-99.99,,,-99.99,524.000000,,2013-07-22 19:47:00,
2013-07-22 14:55:00,83.0,69.0,-100.00,West,259,4.0,13.0,62,-99.99,,,-99.99,524.000000,,2013-07-22 19:55:00,
2013-07-22 15:04:00,83.0,69.0,-100.00,West,259,4.0,13.0,62,-99.99,,,-99.99,524.000000,,2013-07-22 20:04:00,
2013-07-22 15:32:00,86.0,63.0,-100.00,WNW,282,7.0,16.0,46,0.00,,,-99.99,761.000000,,2013-07-22 20:32:00,
2013-07-22 15:43:00,86.0,63.0,-100.00,WNW,282,7.0,16.0,46,0.00,,,-99.99,761.000000,,2013-07-22 20:43:00,
2013-07-22 15:52:00,86.0,63.0,-100.00,WNW,282,7.0,16.0,46,0.00,,,-99.99,761.000000,,2013-07-22 20:52:00,
2013-07-22 16:01:00,86.0,63.0,-100.00,WNW,282,7.0,16.0,46,0.00,,,-99.99,761.000000,,2013-07-22 21:01:00,
2013-07-22 16:33:00,86.0,62.0,-100.00,NW,307,6.0,15.0,45,0.00,,,-99.99,552.000000,,2013-07-22 21:33:00,
2013-07-22 16:43:00,86.0,62.0,-100.00,NW,307,6.0,15.0,45,0.00,,,-99.99,552.000000,,2013-07-22 21:43:00,
2013-07-22 16:53:00,86.0,62.0,-100.00,NW,307,6.0,15.0,45,0.00,,,-99.99,552.000000,,2013-07-22 21:53:00,
2013-07-22 17:01:00,86.0,62.0,-100.00,NW,307,6.0,15.0,45,0.00,,,-99.99,552.000000,,2013-07-22 22:01:00,
2013-07-22 17:32:00,82.0,57.0,-100.00,WNW,302,8.0,20.0,42,0.00,,,-99.99,628.000000,,2013-07-22 22:32:00,
2013-07-22 17:43:00,82.0,57.0,-100.00,WNW,302,8.0,20.0,42,0.00,,,-99.99,628.000000,,2013-07-22 22:43:00,
2013-07-22 17:52:00,82.0,57.0,-100.00,WNW,302,8.0,20.0,42,0.00,,,-99.99,628.000000,,2013-07-22 22:52:00,
2013-07-22 18:01:00,82.0,57.0,-100.00,WNW,302,8.0,20.0,42,0.00,,,-99.99,628.000000,,2013-07-22 23:01:00,
2013-07-22 18:32:00,81.0,58.0,-100.00,NW,315,7.0,18.0,45,0.00,,,-99.99,509.000000,,2013-07-22 23:32:00,
2013-07-22 18:43:00,81.0,58.0,-100.00,NW,315,7.0,18.0,45,0.00,,,-99.99,509.000000,,2013-07-22 23:43:00,
2013-07-22 18:52:00,81.0,58.0,-100.00,NW,315,7.0,18.0,45,0.00,,,-99.99,509.000000,,2013-07-22 23:52:00,
2013-07-22 19:01:00,81.0,58.0,-100.00,NW,315,7.0,18.0,45,0.00,,,-99.99,509.000000,,2013-07-23 00:01:00,
2013-07-22 19:32:00,76.0,56.0,-100.00,NNW,338,7.0,19.0,50,0.00,,,-99.99,244.000000,,2013-07-23 00:32:00,
2013-07-22 19:43:00,76.0,56.0,-100.00,NNW,338,7.0,19.0,50,0.00,,,-99.99,244.000000,,2013-07-23 00:43:00,
2013-07-22 19:52:00,76.0,56.0,-100.00,NNW,338,7.0,19.0,50,0.00,,,-99.99,244.000000,,2013-07-23 00:52:00,
2013-07-22 20:01:00,76.0,56.0,-100.00,NNW,338,7.0,19.0,50,0.00,,,-99.99,244.000000,,2013-07-23 01:01:00,
2013-07-22 20:32:00,72.0,55.0,-100.00,NNW,346,6.0,17.0,55,0.00,,,-99.99,83.000000,,2013-07-23 01:32:00,
2013-07-22 20:43:00,72.0,55.0,-100.00,NNW,346,6.0,17.0,55,0.00,,,-99.99,83.000000,,2013-07-23 01:43:00,
2013-07-22 20:53:00,72.0,55.0,-100.00,NNW,346,6.0,17.0,55,0.00,,,-99.99,83.000000,,2013-07-23 01:53:00,
2013-07-22 21:02:00,72.0,55.0,-100.00,NNW,346,6.0,17.0,55,0.00,,,-99.99,83.000000,,2013-07-23 02:02:00,
2013-07-22 21:33:00,68.0,54.0,-100.00,NNW,327,1.0,10.0,61,0.00,,,-99.99,17.000000,,2013-07-23 02:33:00,
2013-07-22 21:43:00,68.0,54.0,-100.00,NNW,327,1.0,10.0,61,0.00,,,-99.99,17.000000,,2013-07-23 02:43:00,
2013-07-22 21:53:00,68.0,54.0,-100.00,NNW,327,1.0,10.0,61,0.00,,,-99.99,17.000000,,2013-07-23 02:53:00,
2013-07-22 22:01:00,68.0,54.0,-100.00,NNW,327,1.0,10.0,61,0.00,,,-99.99,17.000000,,2013-07-23 03:01:00,
2013-07-22 22:33:00,66.0,53.0,-100.00,NW,312,1.0,5.0,64,0.00,,,-99.99,0.000000,,2013-07-23 03:33:00,
2013-07-22 22:43:00,66.0,53.0,-100.00,NW,312,1.0,5.0,64,0.00,,,-99.99,0.000000,,2013-07-23 03:43:00,
2013-07-22 22:52:00,66.0,53.0,-100.00,NW,312,1.0,5.0,64,0.00,,,-99.99,0.000000,,2013-07-23 03:52:00,
2013-07-22 23:01:00,66.0,53.0,-100.00,NW,312,1.0,5.0,64,0.00,,,-99.99,0.000000,,2013-07-23 04:01:00,
2013-07-22 23:32:00,66.0,52.0,-100.00,NW,319,2.0,7.0,60,0.00,,,-99.99,0.000000,,2013-07-23 04:32:00,
2013-07-22 23:43:00,66.0,52.0,-100.00,NW,319,2.0,7.0,60,0.00,,,-99.99,0.000000,,2013-07-23 04:43:00,
2013-07-22 23:53:00,66.0,52.0,-100.00,NW,319,2.0,7.0,60,0.00,,,-99.99,0.000000,,2013-07-23 04:53:00,